Time;durP1;ratioP1;P1;durP2;ratioP2;P2;SDS_P1;SDS_P2;PMS_P1;PMS_P2;Temp;Humidity;BMP_temperature;BMP_pressure;BME280_temperature;BME280_humidity;BME280_pressure;Samples;Min_cycle;Max_cycle;Signal;HPM_P1;HPM_P2
2022/11/28 00:00:09;;;;;;;63.53;29.15;;;;;;;-0.32;96.17;96134.66;2099002;28;20051;-59
2022/11/28 00:01:18;;;;;;;63.42;29.10;;;;;;;-0.34;96.04;96128.72;2099953;28;20048;-58
2022/11/28 00:02:20;;;;;;;63.40;29.23;;;;;;;-0.39;96.28;96114.25;2099676;28;20055;-58
2022/11/28 00:03:21;;;;;;;66.88;29.55;;;;;;;-0.42;96.18;96125.31;2099594;28;20063;-59
2022/11/28 00:04:22;;;;;;;75.82;32.22;;;;;;;-0.40;96.10;96127.84;2099267;28;20055;-59
2022/11/28 00:05:23;;;;;;;70.30;30.45;;;;;;;-0.39;96.19;96120.22;2099622;28;20040;-59
2022/11/28 00:06:25;;;;;;;63.08;29.05;;;;;;;-0.39;96.54;96124.47;2099788;28;20052;-58
2022/11/28 00:07:26;;;;;;;70.90;30.27;;;;;;;-0.48;96.30;96120.25;2099271;28;20071;-57
2022/11/28 00:08:27;;;;;;;69.97;29.95;;;;;;;-0.50;96.67;96106.63;2099668;28;20032;-56
2022/11/28 00:09:28;;;;;;;65.20;28.67;;;;;;;-0.47;96.15;96116.81;2099518;28;20052;-56
2022/11/28 00:10:29;;;;;;;65.15;29.13;;;;;;;-0.45;96.06;96115.13;2099562;28;20055;-57
2022/11/28 00:11:30;;;;;;;64.50;29.02;;;;;;;-0.52;96.48;96114.28;2099745;28;20111;-57
2022/11/28 00:12:33;;;;;;;62.55;29.67;;;;;;;-0.47;96.33;96114.28;2099200;28;20055;-57
2022/11/28 00:13:35;;;;;;;59.63;28.48;;;;;;;-0.41;96.75;96105.75;2099726;28;20037;-57
2022/11/28 00:14:36;;;;;;;65.15;29.80;;;;;;;-0.46;96.45;96108.31;2098789;28;20060;-57
2022/11/28 00:15:37;;;;;;;62.63;29.75;;;;;;;-0.45;96.48;96100.66;2099636;28;20060;-57
2022/11/28 00:16:38;;;;;;;64.63;28.00;;;;;;;-0.43;96.70;96110.00;2099563;28;20480;-58
2022/11/28 00:17:39;;;;;;;68.47;30.02;;;;;;;-0.44;96.38;96106.59;2099573;28;20146;-58
2022/11/28 00:18:40;;;;;;;65.68;30.00;;;;;;;-0.43;96.21;96105.75;2099615;28;20052;-58
2022/11/28 00:19:41;;;;;;;80.68;32.55;;;;;;;-0.57;96.45;96113.44;2099402;28;20071;-59
2022/11/28 00:20:42;;;;;;;93.75;34.30;;;;;;;-0.57;96.59;96110.03;2099452;28;20408;-58
2022/11/28 00:21:44;;;;;;;65.38;29.35;;;;;;;-0.59;97.25;96104.09;2099555;28;20048;-58
2022/11/28 00:22:45;;;;;;;71.28;30.80;;;;;;;-0.55;96.68;96098.13;2099533;28;20048;-58
2022/11/28 00:23:46;;;;;;;76.25;31.60;;;;;;;-0.53;96.72;96102.38;2098696;28;20373;-58
2022/11/28 00:24:47;;;;;;;85.28;34.55;;;;;;;-0.47;97.03;96098.97;2098900;28;20408;-58
2022/11/28 00:25:56;;;;;;;71.07;31.15;;;;;;;-0.48;97.00;96094.72;2099062;28;20055;-59
2022/11/28 00:26:57;;;;;;;68.93;30.50;;;;;;;-0.47;96.75;96093.88;2099167;28;20056;-59
2022/11/28 00:27:59;;;;;;;75.13;31.10;;;;;;;-0.53;97.34;96086.25;2098755;28;20052;-58
2022/11/28 00:29:00;;;;;;;75.45;32.22;;;;;;;-0.54;96.75;96085.38;2098842;28;20040;-58
2022/11/28 00:30:02;;;;;;;74.00;31.42;;;;;;;-0.58;96.79;96082.84;2098219;28;20064;-58
2022/11/28 00:31:03;;;;;;;68.57;30.77;;;;;;;-0.51;96.92;96080.28;2099313;28;20029;-58
2022/11/28 00:32:04;;;;;;;87.63;33.72;;;;;;;-0.54;97.62;96074.31;2098732;28;20043;-59
2022/11/28 00:33:05;;;;;;;80.55;32.10;;;;;;;-0.48;97.38;96087.06;2099465;28;20057;-59
2022/11/28 00:34:10;;;;;;;68.50;30.42;;;;;;;-0.51;97.41;96084.50;2099551;28;20041;-58
2022/11/28 00:35:12;;;;;;;71.88;31.90;;;;;;;-0.73;97.39;96050.56;2099259;28;20044;-58
2022/11/28 00:36:13;;;;;;;83.65;32.67;;;;;;;-0.54;97.60;96087.91;2098660;28;20063;-58
2022/11/28 00:37:14;;;;;;;90.47;31.88;;;;;;;-0.52;96.87;96085.38;2098687;28;20411;-58
2022/11/28 00:38:15;;;;;;;85.93;34.17;;;;;;;-0.52;96.92;96085.38;2098998;28;20044;-58
2022/11/28 00:39:16;;;;;;;80.47;31.77;;;;;;;-0.45;97.43;96087.91;2099424;28;20036;-58
2022/11/28 00:40:17;;;;;;;75.88;32.13;;;;;;;-0.41;97.43;96091.28;2098709;28;20051;-59
2022/11/28 00:41:23;;;;;;;79.75;31.48;;;;;;;-0.41;97.31;96091.28;2098604;28;20157;-58
2022/11/28 00:42:24;;;;;;;78.40;31.20;;;;;;;-0.41;97.09;96090.44;2099224;28;20047;-58
2022/11/28 00:43:25;;;;;;;76.55;30.52;;;;;;;-0.44;96.78;96091.31;2099596;28;20052;-59
2022/11/28 00:44:26;;;;;;;63.50;28.95;;;;;;;-0.40;96.72;96080.25;2099443;28;20502;-58
2022/11/28 00:45:27;;;;;;;64.20;29.08;;;;;;;-0.40;96.10;96080.25;2099567;28;20063;-58
2022/11/28 00:46:28;;;;;;;66.55;30.23;;;;;;;-0.43;96.55;96080.22;2099346;28;20048;-58
2022/11/28 00:47:29;;;;;;;61.13;29.75;;;;;;;-0.42;96.66;96069.19;2099314;28;20048;-59
2022/11/28 00:48:31;;;;;;;68.30;31.92;;;;;;;-0.57;95.98;96049.66;2099207;28;20510;-58
2022/11/28 00:49:33;;;;;;;71.50;31.67;;;;;;;-0.43;96.43;96081.94;2099245;28;20068;-59
2022/11/28 00:50:34;;;;;;;67.68;30.58;;;;;;;-0.35;96.75;96082.75;2098753;28;20075;-58
2022/11/28 00:51:35;;;;;;;65.70;30.90;;;;;;;-0.33;96.58;96083.63;2099476;28;20036;-54
2022/11/28 00:52:36;;;;;;;69.53;31.17;;;;;;;-0.46;96.01;96064.94;2099159;28;20052;-54
2022/11/28 00:53:39;;;;;;;69.95;32.65;;;;;;;-0.33;96.60;96079.34;2099299;28;20151;-54
2022/11/28 00:54:40;;;;;;;58.17;28.92;;;;;;;-0.31;95.82;96080.19;2098624;28;20048;-54
2022/11/28 00:55:41;;;;;;;61.08;29.30;;;;;;;-0.37;95.59;96094.69;2099159;28;20480;-54
2022/11/28 00:56:42;;;;;;;57.08;28.60;;;;;;;-0.32;95.88;96085.28;2099443;28;20048;-59
2022/11/28 00:57:43;;;;;;;54.67;27.98;;;;;;;-0.35;95.74;96078.50;2099244;28;20053;-58
2022/11/28 00:58:46;;;;;;;49.50;26.10;;;;;;;-0.29;95.78;96086.16;2098410;28;20392;-58
2022/11/28 00:59:47;;;;;;;56.45;27.35;;;;;;;-0.33;95.38;96092.09;2097969;28;20178;-58
2022/11/28 01:00:48;;;;;;;60.03;28.75;;;;;;;-0.47;95.11;96094.72;2099337;28;20039;-58
2022/11/28 01:01:49;;;;;;;59.15;29.13;;;;;;;-0.37;95.34;96092.16;2099280;28;20447;-59
2022/11/28 01:02:51;;;;;;;57.70;27.10;;;;;;;-0.36;95.16;96088.72;2098751;28;20040;-59
2022/11/28 01:03:52;;;;;;;55.25;27.35;;;;;;;-0.41;95.55;96082.78;2098279;28;20053;-59
2022/11/28 01:04:53;;;;;;;51.83;26.08;;;;;;;-0.47;95.56;96086.22;2098817;28;20051;-58
2022/11/28 01:05:54;;;;;;;48.92;25.83;;;;;;;-0.58;95.66;96067.53;2099186;28;20052;-58
2022/11/28 01:06:56;;;;;;;60.72;27.58;;;;;;;-0.39;95.29;96076.84;2099652;28;20037;-53
2022/11/28 01:07:57;;;;;;;53.08;27.70;;;;;;;-0.40;95.50;96074.28;2099111;28;20036;-53
2022/11/28 01:09:00;;;;;;;54.13;26.08;;;;;;;-0.41;94.91;96070.88;2099058;28;20449;-53
2022/11/28 01:10:01;;;;;;;49.65;26.40;;;;;;;-0.34;95.59;96081.94;2098725;28;20052;-53
2022/11/28 01:11:03;;;;;;;54.30;25.85;;;;;;;-0.37;95.18;96082.78;2099349;28;20045;-52
2022/11/28 01:12:04;;;;;;;51.40;26.23;;;;;;;-0.41;95.41;96075.13;2098392;28;20476;-54
2022/11/28 01:13:05;;;;;;;59.78;27.45;;;;;;;-0.41;95.39;96070.88;2099418;28;20041;-54
2022/11/28 01:14:07;;;;;;;57.67;27.83;;;;;;;-0.44;95.26;96081.09;2099084;28;20464;-54
2022/11/28 01:15:09;;;;;;;53.65;27.95;;;;;;;-0.52;95.32;96090.47;2098659;28;20049;-53
2022/11/28 01:16:10;;;;;;;58.88;28.70;;;;;;;-0.47;96.15;96086.22;2099033;28;20032;-54
2022/11/28 01:17:11;;;;;;;67.63;30.45;;;;;;;-0.43;95.75;96090.44;2099286;28;20044;-53
2022/11/28 01:18:12;;;;;;;54.58;26.63;;;;;;;-0.35;95.39;96083.59;2099051;28;20476;-53
2022/11/28 01:19:13;;;;;;;58.38;28.20;;;;;;;-0.43;96.00;96082.78;2099370;28;20037;-53
2022/11/28 01:20:14;;;;;;;50.40;24.85;;;;;;;-0.47;96.00;96086.22;2099122;28;20036;-55
2022/11/28 01:21:15;;;;;;;56.75;28.50;;;;;;;-0.43;95.64;96081.94;2099055;28;20040;-55
2022/11/28 01:22:17;;;;;;;56.33;27.38;;;;;;;-0.46;95.28;96075.97;2098290;28;20048;-55
2022/11/28 01:23:18;;;;;;;49.40;25.65;;;;;;;-0.42;95.90;96068.34;2098552;28;20499;-55
2022/11/28 01:24:19;;;;;;;55.28;29.02;;;;;;;-0.41;95.88;96062.38;2098584;28;20407;-55
2022/11/28 01:25:20;;;;;;;57.75;28.65;;;;;;;-0.47;95.48;96064.09;2099054;28;20040;-55
2022/11/28 01:26:23;;;;;;;53.08;26.50;;;;;;;-0.43;95.45;96069.19;2099019;28;20055;-55
2022/11/28 01:27:24;;;;;;;51.25;26.67;;;;;;;-0.59;95.87;96035.22;2098479;28;20155;-54
2022/11/28 01:28:25;;;;;;;50.20;26.55;;;;;;;-0.41;95.44;96063.22;2099158;28;20040;-55
2022/11/28 01:29:26;;;;;;;56.42;27.15;;;;;;;-0.41;95.45;96059.81;2099038;28;20053;-54
2022/11/28 01:30:27;;;;;;;56.25;28.58;;;;;;;-0.41;95.36;96065.78;2099323;28;20037;-54
2022/11/28 01:31:29;;;;;;;57.38;28.23;;;;;;;-0.49;95.92;96068.34;2099156;28;20043;-59
2022/11/28 01:32:30;;;;;;;54.63;28.00;;;;;;;-0.45;96.43;96064.94;2098842;28;20052;-59
2022/11/28 01:33:31;;;;;;;58.65;27.88;;;;;;;-0.50;95.99;96065.81;2098944;28;20060;-59
2022/11/28 01:34:32;;;;;;;57.38;28.05;;;;;;;-0.50;96.13;96061.56;2098153;28;20048;-59
2022/11/28 01:35:33;;;;;;;61.42;28.17;;;;;;;-0.49;96.44;96062.41;2098789;28;20048;-59
2022/11/28 01:36:34;;;;;;;59.55;28.70;;;;;;;-0.47;96.40;96046.22;2099073;28;20032;-57
2022/11/28 01:37:35;;;;;;;56.45;27.38;;;;;;;-0.41;96.07;96044.50;2098504;28;20052;-57
2022/11/28 01:38:36;;;;;;;56.15;27.83;;;;;;;-0.41;96.24;96060.66;2099229;28;20498;-57
2022/11/28 01:39:37;;;;;;;56.10;28.67;;;;;;;-0.32;96.11;96055.56;2098871;28;20045;-56
2022/11/28 01:40:44;;;;;;;52.83;26.42;;;;;;;-0.39;95.96;96047.91;2098767;28;20036;-57
2022/11/28 01:41:45;;;;;;;53.10;26.92;;;;;;;-0.33;95.62;96058.94;2097740;28;20044;-57
2022/11/28 01:42:46;;;;;;;53.20;26.75;;;;;;;-0.30;95.75;96056.38;2099068;28;20048;-57
2022/11/28 01:43:56;;;;;;;53.25;26.17;;;;;;;-0.35;95.17;96063.19;2099169;28;20052;-57
2022/11/28 01:45:04;;;;;;;57.15;27.67;;;;;;;-0.26;94.86;96065.72;2098766;28;20063;-57
2022/11/28 01:46:05;;;;;;;64.38;28.10;;;;;;;-0.28;94.98;96056.38;2098160;28;20048;-57
2022/11/28 01:47:06;;;;;;;68.78;29.95;;;;;;;-0.28;95.26;96062.31;2099189;28;20452;-61
2022/11/28 01:48:08;;;;;;;54.20;26.40;;;;;;;-0.26;95.31;96054.66;2098308;28;20033;-61
2022/11/28 01:49:22;;;;;;;58.33;28.83;;;;;;;-0.28;94.49;96057.22;2098047;28;20110;-61
2022/11/28 01:50:23;;;;;;;61.85;28.90;;;;;;;-0.23;95.08;96060.59;2098777;28;20052;-61
2022/11/28 01:51:24;;;;;;;58.08;28.33;;;;;;;-0.25;94.86;96056.34;2098056;28;20051;-59
2022/11/28 01:52:25;;;;;;;58.42;29.05;;;;;;;-0.35;95.07;96052.97;2097479;28;20052;-59
2022/11/28 01:53:29;;;;;;;51.58;26.10;;;;;;;-0.42;94.85;96058.97;2097934;28;20401;-59
2022/11/28 01:54:31;;;;;;;53.85;27.17;;;;;;;-0.40;95.11;96056.41;2097227;28;20052;-59
2022/11/28 01:55:34;;;;;;;57.38;26.70;;;;;;;-0.33;95.15;96047.88;2089983;28;20044;-59
2022/11/28 01:56:44;;;;;;;53.35;25.92;;;;;;;-0.47;95.27;96014.78;2073306;28;20053;-59
2022/11/28 01:57:45;;;;;;;51.80;24.98;;;;;;;-0.40;95.24;96041.09;2082641;28;20057;-59
2022/11/28 01:58:47;;;;;;;47.17;24.10;;;;;;;-0.42;95.03;96046.22;2073953;28;20053;-59
2022/11/28 01:59:56;;;;;;;44.30;23.42;;;;;;;-0.48;94.88;96051.34;2073595;28;20058;-59
2022/11/28 02:00:57;;;;;;;45.25;23.85;;;;;;;-0.39;95.15;96047.91;2083179;28;20052;-59
2022/11/28 02:02:06;;;;;;;47.88;24.38;;;;;;;-0.51;95.10;96053.91;2097288;28;20045;-56
2022/11/28 02:03:11;;;;;;;54.90;27.50;;;;;;;-0.58;94.99;96058.19;2097785;28;20052;-58
2022/11/28 02:04:12;;;;;;;48.38;24.58;;;;;;;-0.44;94.81;96058.13;2081951;28;20053;-58
2022/11/28 02:05:14;;;;;;;50.63;25.80;;;;;;;-0.49;95.25;96036.88;2089777;28;20060;-58
2022/11/28 02:06:17;;;;;;;48.10;25.33;;;;;;;-0.59;95.60;96014.81;2098657;28;20421;-58
2022/11/28 02:07:18;;;;;;;44.25;23.65;;;;;;;-0.56;95.65;95997.81;2089403;28;20041;-58
2022/11/28 02:08:20;;;;;;;52.45;25.83;;;;;;;-0.61;95.46;96021.63;2081658;28;20052;-58
2022/11/28 02:09:21;;;;;;;58.05;27.35;;;;;;;-0.61;95.87;96042.03;2097623;28;20055;-59
2022/11/28 02:10:24;;;;;;;50.45;25.13;;;;;;;-0.53;96.09;96043.72;2098831;28;20048;-58
2022/11/28 02:11:39;;;;;;;57.05;26.50;;;;;;;-0.62;95.94;96030.13;2097886;28;20048;-58
2022/11/28 02:13:23;;;;;;;54.97;25.33;;;;;;;-0.72;96.25;96048.03;2097293;28;20531;-58
2022/11/28 02:14:52;;;;;;;57.30;26.95;;;;;;;-0.62;96.19;96037.78;2094300;28;20055;-58
2022/11/28 02:15:57;;;;;;;59.53;28.15;;;;;;;-0.54;96.17;96048.81;2089423;28;20040;-58
2022/11/28 02:17:09;;;;;;;56.33;27.27;;;;;;;-0.60;95.77;96051.38;2084050;28;20049;-58
2022/11/28 02:18:18;;;;;;;62.08;28.92;;;;;;;-0.66;95.79;96042.06;2090128;28;20056;-59
2022/11/28 02:19:25;;;;;;;57.83;26.60;;;;;;;-0.57;95.67;96038.63;2091510;28;20048;-62
2022/11/28 02:20:55;;;;;;;53.13;26.02;;;;;;;-0.56;95.69;96025.00;2091114;28;20550;-59
2022/11/28 02:22:02;;;;;;;54.15;27.25;;;;;;;-0.61;95.73;96030.13;2093303;28;20055;-59
2022/11/28 02:23:15;;;;;;;57.08;26.85;;;;;;;-0.53;96.04;96037.75;2082322;28;20033;-59
2022/11/28 02:24:25;;;;;;;62.33;27.75;;;;;;;-0.48;96.49;96043.72;2091345;28;20404;-58
2022/11/28 02:26:15;;;;;;;52.97;26.52;;;;;;;-0.54;95.71;96030.94;2098214;28;20049;-58
2022/11/28 02:27:21;;;;;;;50.00;23.98;;;;;;;-0.65;95.81;96020.78;2090012;28;20044;-58
2022/11/28 02:28:46;;;;;;;45.55;23.55;;;;;;;-0.54;95.73;96016.47;2097873;28;20053;-59
2022/11/28 02:29:50;;;;;;;50.40;25.02;;;;;;;-0.62;96.39;96012.28;2097452;28;20467;-58
2022/11/28 02:31:16;;;;;;;48.75;24.08;;;;;;;-0.49;96.43;96024.13;2097459;28;20044;-58
2022/11/28 02:32:35;;;;;;;50.92;25.17;;;;;;;-0.54;95.47;96025.84;2097116;28;20048;-59
2022/11/28 02:33:45;;;;;;;44.38;23.52;;;;;;;-0.70;96.12;96008.03;2098384;28;20515;-59
2022/11/28 02:35:03;;;;;;;47.20;24.42;;;;;;;-0.57;95.37;96034.34;2097488;28;20051;-58
2022/11/28 02:36:09;;;;;;;46.95;24.65;;;;;;;-0.52;95.93;96037.75;2097207;28;20048;-60
2022/11/28 02:37:14;;;;;;;46.42;24.08;;;;;;;-0.46;95.15;96014.75;2096958;28;20078;-59
2022/11/28 02:38:49;;;;;;;45.88;24.13;;;;;;;-0.53;95.81;95997.78;2073808;28;20053;-59
2022/11/28 02:39:59;;;;;;;43.67;24.20;;;;;;;-0.57;95.65;95992.69;2091080;28;20401;-59
2022/11/28 02:41:18;;;;;;;46.55;24.65;;;;;;;-0.54;95.59;96005.44;2089211;28;20064;-59
2022/11/28 02:42:22;;;;;;;35.42;18.55;;;;;;;-0.51;95.46;96019.06;2077410;28;20049;-59
2022/11/28 02:43:41;;;;;;;50.90;25.20;;;;;;;-0.53;95.27;96012.25;2074661;28;20053;-59
2022/11/28 02:45:04;;;;;;;46.75;23.60;;;;;;;-0.59;95.06;96004.59;2092407;28;20476;-60
2022/11/28 02:46:17;;;;;;;42.67;23.02;;;;;;;-0.54;95.46;96000.34;2097303;28;20052;-59
2022/11/28 02:47:42;;;;;;;51.15;27.00;;;;;;;-0.56;95.62;95985.06;2101136;28;20037;-59
2022/11/28 02:48:50;;;;;;;47.17;25.10;;;;;;;-0.56;95.78;95963.78;2088818;28;20045;-60
2022/11/28 02:49:58;;;;;;;46.08;23.70;;;;;;;-0.59;95.42;95958.69;2083382;28;20045;-59
2022/11/28 02:51:40;;;;;;;47.42;25.48;;;;;;;-0.57;95.56;95957.00;2090838;28;20496;-59
2022/11/28 02:52:45;;;;;;;46.08;23.63;;;;;;;-0.59;96.14;95974.00;2094226;28;20048;-59
2022/11/28 02:53:46;;;;;;;47.17;25.00;;;;;;;-0.51;95.92;95954.41;2092758;28;20067;-59
2022/11/28 02:54:48;;;;;;;48.58;25.73;;;;;;;-0.54;95.90;95949.31;2088682;28;20057;-59
2022/11/28 02:55:50;;;;;;;52.55;25.75;;;;;;;-0.55;96.06;95951.03;2089294;28;20057;-59
2022/11/28 02:56:52;;;;;;;48.75;25.35;;;;;;;-0.52;95.70;95956.09;2073720;28;20054;-59
2022/11/28 02:57:53;;;;;;;54.83;27.63;;;;;;;-0.48;95.62;95956.97;2089428;28;20436;-59
2022/11/28 02:58:54;;;;;;;56.13;27.33;;;;;;;-0.53;95.50;95951.88;2098229;28;20028;-59
2022/11/28 02:59:55;;;;;;;54.45;26.98;;;;;;;-0.56;95.64;95938.25;2098480;28;20037;-59
2022/11/28 03:00:56;;;;;;;48.92;25.27;;;;;;;-0.48;95.90;95946.75;2098348;28;20040;-59
2022/11/28 03:01:58;;;;;;;49.33;27.10;;;;;;;-0.47;95.71;95945.88;2098264;28;20063;-58
2022/11/28 03:03:08;;;;;;;53.50;27.63;;;;;;;-0.46;95.21;95963.72;2097755;28;20059;-58
2022/11/28 03:04:17;;;;;;;51.30;25.08;;;;;;;-0.46;95.21;95975.63;2097922;28;20483;-58
2022/11/28 03:05:41;;;;;;;48.25;25.63;;;;;;;-0.47;95.33;95958.66;2089490;28;20060;-58
2022/11/28 03:07:00;;;;;;;52.85;26.00;;;;;;;-0.49;94.88;95955.25;2087653;28;20052;-59
2022/11/28 03:08:49;;;;;;;55.03;26.88;;;;;;;-0.47;95.42;95946.72;2091550;28;20045;-58
2022/11/28 03:10:12;;;;;;;46.08;24.42;;;;;;;-0.51;95.11;95929.75;2086743;28;20041;-58
2022/11/28 03:11:19;;;;;;;48.22;23.92;;;;;;;-0.54;95.78;95924.66;2089166;28;20045;-58
2022/11/28 03:12:45;;;;;;;42.70;23.95;;;;;;;-0.60;95.13;95937.44;2086114;28;20056;-59
2022/11/28 03:14:01;;;;;;;48.55;23.90;;;;;;;-0.59;95.64;95940.84;2097294;28;20403;-58
2022/11/28 03:15:04;;;;;;;49.58;25.98;;;;;;;-0.63;95.10;95957.03;2089538;28;20052;-58
2022/11/28 03:16:27;;;;;;;45.03;22.67;;;;;;;-0.58;95.16;95935.75;2090091;28;20052;-58
2022/11/28 03:17:35;;;;;;;48.78;24.80;;;;;;;-0.53;95.50;95925.53;2098007;28;20055;-58
2022/11/28 03:18:38;;;;;;;48.50;25.65;;;;;;;-0.62;95.67;95931.50;2097792;28;20055;-58
2022/11/28 03:19:47;;;;;;;49.08;25.95;;;;;;;-0.61;96.14;95940.03;2089669;28;20047;-57
2022/11/28 03:20:52;;;;;;;54.53;25.70;;;;;;;-0.58;95.56;95940.00;2082315;28;20049;-58
2022/11/28 03:22:30;;;;;;;49.90;25.90;;;;;;;-0.59;95.65;95945.94;2089891;28;20138;-54
2022/11/28 03:23:32;;;;;;;47.03;24.60;;;;;;;-0.49;96.47;95939.94;2088075;28;20044;-53
2022/11/28 03:24:48;;;;;;;46.67;24.48;;;;;;;-0.51;95.77;95928.88;2095119;28;20119;-53
2022/11/28 03:25:57;;;;;;;48.97;24.92;;;;;;;-0.53;95.97;95921.25;2096726;28;20049;-54
2022/11/28 03:27:08;;;;;;;49.15;26.27;;;;;;;-0.65;95.35;95888.16;2097077;28;20040;-53
2022/11/28 03:28:28;;;;;;;46.45;24.80;;;;;;;-0.50;95.66;95912.75;2090601;28;20048;-53
2022/11/28 03:29:57;;;;;;;48.15;24.27;;;;;;;-0.50;96.06;95905.94;2096820;28;20420;-53
2022/11/28 03:31:32;;;;;;;50.90;25.67;;;;;;;-0.54;95.23;95895.75;2097474;28;20155;-53
2022/11/28 03:32:35;;;;;;;47.92;24.42;;;;;;;-0.59;95.63;95883.00;2089956;28;20048;-53
2022/11/28 03:33:37;;;;;;;50.63;26.33;;;;;;;-0.53;95.82;95892.34;2097685;28;20288;-53
2022/11/28 03:34:43;;;;;;;53.67;26.40;;;;;;;-0.50;95.78;95877.03;2097736;28;20435;-53
2022/11/28 03:35:49;;;;;;;52.08;26.23;;;;;;;-0.55;96.41;95871.09;2097532;28;20059;-53
2022/11/28 03:36:53;;;;;;;53.13;26.95;;;;;;;-0.66;95.72;95848.22;2096794;28;20060;-53
2022/11/28 03:37:56;;;;;;;55.00;26.58;;;;;;;-0.52;95.65;95858.31;2097243;28;20044;-53
2022/11/28 03:39:00;;;;;;;49.40;25.40;;;;;;;-0.56;96.32;95851.53;2089227;28;20048;-53
2022/11/28 03:40:06;;;;;;;53.13;26.80;;;;;;;-0.63;96.09;95845.63;2081759;28;20045;-53
2022/11/28 03:41:09;;;;;;;48.30;25.70;;;;;;;-0.57;96.33;95871.09;2089858;28;20053;-53
2022/11/28 03:42:17;;;;;;;59.75;28.92;;;;;;;-0.60;95.97;95850.72;2097337;28;20056;-53
2022/11/28 03:43:21;;;;;;;54.15;27.77;;;;;;;-0.55;95.69;95860.91;2100227;28;20024;-53
2022/11/28 03:44:27;;;;;;;58.55;29.63;;;;;;;-0.61;96.58;95855.84;2089327;28;20079;-53
2022/11/28 03:45:31;;;;;;;58.00;27.42;;;;;;;-0.56;96.16;95894.91;2081664;28;20061;-54
2022/11/28 03:46:35;;;;;;;57.92;28.17;;;;;;;-0.56;96.26;95945.91;2082032;28;20061;-53
2022/11/28 03:47:40;;;;;;;54.83;27.42;;;;;;;-0.49;96.03;95985.88;2080717;28;20054;-53
2022/11/28 03:48:44;;;;;;;49.88;25.98;;;;;;;-0.43;96.16;95995.19;2073943;28;20042;-53
2022/11/28 03:49:49;;;;;;;54.70;26.15;;;;;;;-0.52;95.87;95981.63;2082152;28;20049;-53
2022/11/28 03:50:57;;;;;;;55.78;26.67;;;;;;;-0.52;96.09;95961.22;2089825;28;20084;-53
2022/11/28 03:52:06;;;;;;;58.72;27.00;;;;;;;-0.55;95.60;95979.09;2082003;28;20041;-53
2022/11/28 03:53:20;;;;;;;52.38;24.58;;;;;;;-0.47;95.97;95992.66;2089776;28;20041;-53
2022/11/28 03:54:35;;;;;;;50.03;25.08;;;;;;;-0.45;96.23;95983.31;2097252;28;20055;-53
2022/11/28 03:55:42;;;;;;;53.85;25.38;;;;;;;-0.50;95.57;95961.22;2096914;28;20381;-53
2022/11/28 03:56:52;;;;;;;46.53;23.80;;;;;;;-0.45;96.04;95985.00;2098071;28;20408;-53
2022/11/28 03:57:58;;;;;;;54.65;26.33;;;;;;;-0.47;95.81;95989.25;2097570;28;20040;-53
2022/11/28 03:59:08;;;;;;;52.00;26.17;;;;;;;-0.38;95.56;95984.09;2081550;28;20050;-53
2022/11/28 04:00:11;;;;;;;53.30;26.67;;;;;;;-0.35;95.70;95970.47;2075020;28;20060;-53
2022/11/28 04:01:44;;;;;;;59.67;28.55;;;;;;;-0.33;95.50;95971.34;2082782;28;20048;-53
2022/11/28 04:02:48;;;;;;;52.10;26.95;;;;;;;-0.40;95.56;95979.84;2091997;28;20048;-53
2022/11/28 04:04:10;;;;;;;53.17;27.17;;;;;;;-0.34;95.63;95975.59;2097438;28;20361;-53
2022/11/28 04:05:11;;;;;;;51.20;26.05;;;;;;;-0.29;95.98;95963.66;2089665;28;20043;-53
2022/11/28 04:06:14;;;;;;;49.17;25.55;;;;;;;-0.24;95.18;95974.69;2091170;28;20090;-52
2022/11/28 04:07:35;;;;;;;51.35;26.20;;;;;;;-0.32;95.72;95984.09;2098837;28;20041;-53
2022/11/28 04:08:39;;;;;;;47.17;24.60;;;;;;;-0.31;95.09;95975.56;2093195;28;20047;-53
2022/11/28 04:09:44;;;;;;;48.20;25.92;;;;;;;-0.35;94.88;95966.22;2082774;28;20041;-53
2022/11/28 04:11:03;;;;;;;54.85;26.92;;;;;;;-0.31;95.66;95973.03;2090157;28;20056;-53
2022/11/28 04:12:20;;;;;;;48.25;23.88;;;;;;;-0.38;95.56;95971.34;2093863;28;20067;-59
2022/11/28 04:13:30;;;;;;;47.97;24.95;;;;;;;-0.30;95.71;95979.81;2090684;28;20032;-59
2022/11/28 04:14:38;;;;;;;48.95;25.25;;;;;;;-0.27;95.30;95974.72;2091546;28;20056;-59
2022/11/28 04:15:53;;;;;;;48.88;25.88;;;;;;;-0.30;95.41;95974.69;2090840;28;20037;-59
2022/11/28 04:17:04;;;;;;;49.33;24.17;;;;;;;-0.33;94.96;95950.91;2086529;28;20053;-59
2022/11/28 04:18:10;;;;;;;47.95;26.17;;;;;;;-0.22;95.16;95957.63;2092533;28;20088;-59
2022/11/28 04:19:22;;;;;;;47.22;24.45;;;;;;;-0.22;95.17;95957.63;2098887;28;20471;-59
2022/11/28 04:20:31;;;;;;;46.00;25.02;;;;;;;-0.24;95.08;95961.94;2092125;28;20504;-59
2022/11/28 04:21:35;;;;;;;;;;;;;;;-0.26;94.78;95958.53;2087047;28;20117;-57
2022/11/28 04:22:56;;;;;;;45.15;23.45;;;;;;;-0.26;94.71;95963.63;2090952;28;20257;-56
2022/11/28 04:24:01;;;;;;;47.58;24.42;;;;;;;-0.35;94.97;95965.38;2089640;28;20055;-57
2022/11/28 04:25:10;;;;;;;47.13;23.92;;;;;;;-0.30;95.45;95961.09;2075440;28;20401;-57
2022/11/28 04:26:16;;;;;;;45.30;23.63;;;;;;;-0.24;95.11;95961.09;2085156;28;20045;-57
2022/11/28 04:27:22;;;;;;;42.70;22.70;;;;;;;-0.31;94.85;95942.41;2091359;28;20060;-56
2022/11/28 04:28:24;;;;;;;46.22;24.67;;;;;;;-0.32;94.62;95937.28;2090463;28;20040;-56
2022/11/28 04:29:26;;;;;;;44.45;23.25;;;;;;;-0.32;94.73;95924.53;2074813;28;20524;-57
2022/11/28 04:30:27;;;;;;;41.83;23.27;;;;;;;-0.35;95.01;95938.16;2082028;28;20053;-56
2022/11/28 04:31:28;;;;;;;45.22;25.52;;;;;;;-0.40;94.82;95939.03;2098717;28;20052;-57
2022/11/28 04:32:30;;;;;;;42.50;23.92;;;;;;;-0.37;94.59;95921.19;2098858;28;20446;-56
2022/11/28 04:33:32;;;;;;;40.60;23.70;;;;;;;-0.37;95.35;95931.41;2081355;28;20053;-56
2022/11/28 04:34:33;;;;;;;41.80;23.13;;;;;;;-0.39;95.04;95922.91;2073530;28;20053;-56
2022/11/28 04:35:37;;;;;;;39.28;22.55;;;;;;;-0.37;95.00;95918.63;2082071;28;20045;-56
2022/11/28 04:36:38;;;;;;;39.58;22.60;;;;;;;-0.27;94.58;95928.78;2098184;28;20059;-57
2022/11/28 04:37:39;;;;;;;37.92;21.85;;;;;;;-0.28;95.03;95927.06;2090456;28;20052;-57
2022/11/28 04:38:40;;;;;;;44.42;24.30;;;;;;;-0.28;95.25;95927.06;2073825;28;20065;-56
2022/11/28 04:39:43;;;;;;;44.22;24.80;;;;;;;-0.26;95.44;95927.91;2073334;28;20424;-56
2022/11/28 04:40:54;;;;;;;43.40;24.55;;;;;;;-0.26;95.17;95935.56;2082472;28;20057;-56
2022/11/28 04:42:14;;;;;;;41.42;22.55;;;;;;;-0.23;94.85;95934.69;2098529;28;20608;-57
2022/11/28 04:43:19;;;;;;;40.20;22.77;;;;;;;-0.27;95.03;95928.78;2098784;28;20044;-57
2022/11/28 04:44:30;;;;;;;44.28;24.02;;;;;;;-0.26;95.25;95929.63;2090754;28;20574;-57
2022/11/28 04:45:33;;;;;;;44.55;24.45;;;;;;;-0.28;95.08;95928.78;2092005;28;20045;-57
2022/11/28 04:46:38;;;;;;;41.13;22.75;;;;;;;-0.20;95.42;95921.06;2082453;28;20059;-57
2022/11/28 04:47:39;;;;;;;43.88;24.42;;;;;;;-0.24;94.54;95928.75;2090713;28;20044;-57
2022/11/28 04:48:40;;;;;;;44.90;24.30;;;;;;;-0.28;94.71;95916.00;2089425;28;20048;-57
2022/11/28 04:49:41;;;;;;;42.67;23.60;;;;;;;-0.24;94.63;95936.41;2090158;28;20049;-56
2022/11/28 04:50:59;;;;;;;41.25;23.52;;;;;;;-0.29;94.66;95925.38;2090478;28;20508;-57
2022/11/28 04:52:06;;;;;;;43.90;22.33;;;;;;;-0.34;94.55;95908.41;2092704;28;20151;-56
2022/11/28 04:53:10;;;;;;;38.03;21.48;;;;;;;-0.28;94.69;95923.66;2084852;28;20382;-56
2022/11/28 04:54:16;;;;;;;44.60;24.02;;;;;;;-0.30;94.68;95922.81;2074920;28;20040;-56
2022/11/28 04:55:40;;;;;;;44.35;23.27;;;;;;;-0.29;94.80;95932.19;2075062;28;20050;-57
2022/11/28 04:56:44;;;;;;;46.30;23.65;;;;;;;-0.32;95.10;95922.84;2088409;28;20041;-60
2022/11/28 04:57:48;;;;;;;44.38;24.77;;;;;;;-0.32;95.43;95921.97;2085030;28;20041;-60
2022/11/28 04:58:49;;;;;;;42.63;23.25;;;;;;;-0.28;95.19;95921.13;2074054;28;20054;-60
2022/11/28 04:59:50;;;;;;;40.67;23.80;;;;;;;-0.26;95.03;95917.69;2082027;28;20124;-60
2022/11/28 05:00:52;;;;;;;44.20;23.60;;;;;;;-0.28;94.84;95910.91;2090570;28;20035;-60
2022/11/28 05:01:53;;;;;;;43.55;23.38;;;;;;;-0.23;95.08;95919.38;2082057;28;20369;-54
2022/11/28 05:02:54;;;;;;;47.25;24.67;;;;;;;-0.23;95.18;95920.22;2090226;28;20052;-53
2022/11/28 05:03:55;;;;;;;47.15;25.05;;;;;;;-0.23;95.09;95930.44;2081471;28;20496;-54
2022/11/28 05:04:57;;;;;;;45.42;23.80;;;;;;;-0.23;95.16;95919.38;2098235;28;20519;-53